sensor_id;sensor_type;location;lat;lon;timestamp;P1;durP1;ratioP1;P2;durP2;ratioP2
59042;SDS011;44826;51.596;5.624;2024-01-15T00:02:16;10.27;;;4.40;;
59042;SDS011;44826;51.596;5.624;2024-01-15T00:04:42;8.97;;;4.73;;
59042;SDS011;44826;51.596;5.624;2024-01-15T00:07:10;8.43;;;3.83;;
59042;SDS011;44826;51.596;5.624;2024-01-15T00:09:35;9.60;;;4.30;;
59042;SDS011;44826;51.596;5.624;2024-01-15T00:12:03;7.23;;;4.00;;
59042;SDS011;44826;51.596;5.624;2024-01-15T00:14:29;6.73;;;3.47;;
59042;SDS011;44826;51.596;5.624;2024-01-15T00:16:58;5.60;;;2.97;;
59042;SDS011;44826;51.596;5.624;2024-01-15T00:19:23;5.50;;;2.90;;
59042;SDS011;44826;51.596;5.624;2024-01-15T00:21:57;5.03;;;2.80;;
59042;SDS011;44826;51.596;5.624;2024-01-15T00:24:22;4.07;;;2.67;;
59042;SDS011;44826;51.596;5.624;2024-01-15T00:26:48;5.63;;;2.90;;
59042;SDS011;44826;51.596;5.624;2024-01-15T00:29:13;6.17;;;2.70;;
59042;SDS011;44826;51.596;5.624;2024-01-15T00:31:39;5.67;;;3.10;;
59042;SDS011;44826;51.596;5.624;2024-01-15T00:34:04;6.10;;;3.20;;
59042;SDS011;44826;51.596;5.624;2024-01-15T00:36:30;5.17;;;3.40;;
59042;SDS011;44826;51.596;5.624;2024-01-15T00:38:55;7.57;;;3.73;;
59042;SDS011;44826;51.596;5.624;2024-01-15T00:41:21;6.83;;;3.93;;
59042;SDS011;44826;51.596;5.624;2024-01-15T00:43:46;9.33;;;4.43;;
59042;SDS011;44826;51.596;5.624;2024-01-15T00:46:14;7.83;;;4.20;;
59042;SDS011;44826;51.596;5.624;2024-01-15T00:48:40;11.00;;;5.10;;
59042;SDS011;44826;51.596;5.624;2024-01-15T00:51:05;10.80;;;5.50;;
59042;SDS011;44826;51.596;5.624;2024-01-15T00:53:30;11.70;;;5.10;;
59042;SDS011;44826;51.596;5.624;2024-01-15T00:55:56;11.37;;;5.77;;
59042;SDS011;44826;51.596;5.624;2024-01-15T00:58:21;10.60;;;5.50;;
59042;SDS011;44826;51.596;5.624;2024-01-15T01:00:47;10.97;;;5.73;;
59042;SDS011;44826;51.596;5.624;2024-01-15T01:03:12;12.00;;;5.83;;
59042;SDS011;44826;51.596;5.624;2024-01-15T01:05:38;12.70;;;6.13;;
59042;SDS011;44826;51.596;5.624;2024-01-15T01:08:03;13.37;;;6.30;;
59042;SDS011;44826;51.596;5.624;2024-01-15T01:10:31;12.33;;;6.00;;
59042;SDS011;44826;51.596;5.624;2024-01-15T01:12:56;13.07;;;6.40;;
59042;SDS011;44826;51.596;5.624;2024-01-15T01:15:22;12.70;;;5.93;;
59042;SDS011;44826;51.596;5.624;2024-01-15T01:17:47;12.13;;;5.97;;
59042;SDS011;44826;51.596;5.624;2024-01-15T01:20:13;11.73;;;5.23;;
59042;SDS011;44826;51.596;5.624;2024-01-15T01:22:40;12.80;;;4.90;;
59042;SDS011;44826;51.596;5.624;2024-01-15T01:25:06;10.30;;;5.07;;
59042;SDS011;44826;51.596;5.624;2024-01-15T01:27:31;13.30;;;4.73;;
59042;SDS011;44826;51.596;5.624;2024-01-15T01:29:57;10.50;;;5.13;;
59042;SDS011;44826;51.596;5.624;2024-01-15T01:32:22;9.30;;;4.50;;
59042;SDS011;44826;51.596;5.624;2024-01-15T01:34:47;9.53;;;4.07;;
59042;SDS011;44826;51.596;5.624;2024-01-15T01:37:13;7.63;;;3.60;;
59042;SDS011;44826;51.596;5.624;2024-01-15T01:39:39;7.67;;;3.53;;
59042;SDS011;44826;51.596;5.624;2024-01-15T01:42:05;7.00;;;2.90;;
59042;SDS011;44826;51.596;5.624;2024-01-15T01:44:31;6.13;;;2.50;;
59042;SDS011;44826;51.596;5.624;2024-01-15T01:46:57;5.33;;;2.30;;
59042;SDS011;44826;51.596;5.624;2024-01-15T01:49:24;5.33;;;2.40;;
59042;SDS011;44826;51.596;5.624;2024-01-15T01:51:51;4.70;;;1.77;;
59042;SDS011;44826;51.596;5.624;2024-01-15T01:54:17;3.97;;;1.60;;
59042;SDS011;44826;51.596;5.624;2024-01-15T01:56:44;3.07;;;1.40;;
59042;SDS011;44826;51.596;5.624;2024-01-15T01:59:10;3.47;;;1.10;;
59042;SDS011;44826;51.596;5.624;2024-01-15T02:01:36;2.87;;;1.20;;
59042;SDS011;44826;51.596;5.624;2024-01-15T02:04:02;1.97;;;1.03;;
59042;SDS011;44826;51.596;5.624;2024-01-15T02:06:29;3.07;;;1.27;;
59042;SDS011;44826;51.596;5.624;2024-01-15T02:08:54;5.60;;;1.00;;
59042;SDS011;44826;51.596;5.624;2024-01-15T02:11:20;2.33;;;0.80;;
59042;SDS011;44826;51.596;5.624;2024-01-15T02:13:46;3.83;;;1.00;;
59042;SDS011;44826;51.596;5.624;2024-01-15T02:16:12;2.50;;;1.00;;
59042;SDS011;44826;51.596;5.624;2024-01-15T02:18:41;2.37;;;0.90;;
59042;SDS011;44826;51.596;5.624;2024-01-15T02:21:07;1.63;;;1.00;;
59042;SDS011;44826;51.596;5.624;2024-01-15T02:23:32;2.27;;;0.90;;
59042;SDS011;44826;51.596;5.624;2024-01-15T02:25:58;4.20;;;1.10;;
59042;SDS011;44826;51.596;5.624;2024-01-15T02:28:23;2.93;;;0.93;;
59042;SDS011;44826;51.596;5.624;2024-01-15T02:30:49;2.20;;;0.80;;
59042;SDS011;44826;51.596;5.624;2024-01-15T02:33:14;2.80;;;0.90;;
59042;SDS011;44826;51.596;5.624;2024-01-15T02:35:39;1.43;;;0.70;;
59042;SDS011;44826;51.596;5.624;2024-01-15T02:38:05;4.90;;;0.90;;
59042;SDS011;44826;51.596;5.624;2024-01-15T02:40:31;4.13;;;0.90;;
59042;SDS011;44826;51.596;5.624;2024-01-15T02:42:57;2.73;;;0.80;;
59042;SDS011;44826;51.596;5.624;2024-01-15T02:45:22;3.80;;;1.00;;
59042;SDS011;44826;51.596;5.624;2024-01-15T02:47:48;3.63;;;0.90;;
59042;SDS011;44826;51.596;5.624;2024-01-15T02:50:13;2.90;;;1.00;;
59042;SDS011;44826;51.596;5.624;2024-01-15T02:52:39;2.10;;;1.00;;
59042;SDS011;44826;51.596;5.624;2024-01-15T02:55:04;2.70;;;0.80;;
59042;SDS011;44826;51.596;5.624;2024-01-15T02:57:30;3.80;;;1.03;;
59042;SDS011;44826;51.596;5.624;2024-01-15T02:59:55;4.93;;;0.90;;
59042;SDS011;44826;51.596;5.624;2024-01-15T03:02:21;4.10;;;1.00;;
59042;SDS011;44826;51.596;5.624;2024-01-15T03:04:46;3.97;;;1.40;;
59042;SDS011;44826;51.596;5.624;2024-01-15T03:07:12;2.77;;;0.80;;
59042;SDS011;44826;51.596;5.624;2024-01-15T03:09:37;4.40;;;1.50;;
59042;SDS011;44826;51.596;5.624;2024-01-15T03:12:03;2.77;;;0.80;;
59042;SDS011;44826;51.596;5.624;2024-01-15T03:14:28;1.37;;;0.67;;
59042;SDS011;44826;51.596;5.624;2024-01-15T03:16:54;2.17;;;0.70;;
59042;SDS011;44826;51.596;5.624;2024-01-15T03:19:19;3.80;;;0.83;;
59042;SDS011;44826;51.596;5.624;2024-01-15T03:21:44;4.07;;;0.70;;
59042;SDS011;44826;51.596;5.624;2024-01-15T03:24:10;2.37;;;0.50;;
59042;SDS011;44826;51.596;5.624;2024-01-15T03:26:35;2.57;;;0.70;;
59042;SDS011;44826;51.596;5.624;2024-01-15T03:29:01;4.03;;;0.90;;
59042;SDS011;44826;51.596;5.624;2024-01-15T03:31:26;2.77;;;1.00;;
59042;SDS011;44826;51.596;5.624;2024-01-15T03:33:51;3.00;;;0.63;;
59042;SDS011;44826;51.596;5.624;2024-01-15T03:36:17;3.57;;;0.53;;
59042;SDS011;44826;51.596;5.624;2024-01-15T03:38:42;2.23;;;0.60;;
59042;SDS011;44826;51.596;5.624;2024-01-15T03:41:07;2.27;;;0.57;;
59042;SDS011;44826;51.596;5.624;2024-01-15T03:43:33;1.67;;;0.70;;
59042;SDS011;44826;51.596;5.624;2024-01-15T03:45:58;3.37;;;0.70;;
59042;SDS011;44826;51.596;5.624;2024-01-15T03:48:24;4.10;;;0.67;;
59042;SDS011;44826;51.596;5.624;2024-01-15T03:50:49;4.27;;;0.70;;
59042;SDS011;44826;51.596;5.624;2024-01-15T03:53:14;5.00;;;0.67;;
59042;SDS011;44826;51.596;5.624;2024-01-15T03:55:40;2.83;;;0.70;;
59042;SDS011;44826;51.596;5.624;2024-01-15T03:58:05;3.13;;;0.50;;
59042;SDS011;44826;51.596;5.624;2024-01-15T04:00:31;1.27;;;0.60;;
59042;SDS011;44826;51.596;5.624;2024-01-15T04:02:56;1.80;;;0.60;;
59042;SDS011;44826;51.596;5.624;2024-01-15T04:05:21;2.90;;;0.63;;
59042;SDS011;44826;51.596;5.624;2024-01-15T04:07:47;2.03;;;0.50;;
59042;SDS011;44826;51.596;5.624;2024-01-15T04:10:12;3.80;;;0.80;;
59042;SDS011;44826;51.596;5.624;2024-01-15T04:12:37;5.37;;;0.83;;
59042;SDS011;44826;51.596;5.624;2024-01-15T04:15:03;4.73;;;0.80;;
59042;SDS011;44826;51.596;5.624;2024-01-15T04:17:28;2.90;;;0.70;;
59042;SDS011;44826;51.596;5.624;2024-01-15T04:19:54;2.70;;;0.73;;
59042;SDS011;44826;51.596;5.624;2024-01-15T04:22:20;4.57;;;0.70;;
59042;SDS011;44826;51.596;5.624;2024-01-15T04:24:45;2.47;;;0.80;;
59042;SDS011;44826;51.596;5.624;2024-01-15T04:27:10;1.03;;;0.60;;
59042;SDS011;44826;51.596;5.624;2024-01-15T04:29:37;3.63;;;0.87;;
59042;SDS011;44826;51.596;5.624;2024-01-15T04:32:04;6.17;;;0.93;;
59042;SDS011;44826;51.596;5.624;2024-01-15T04:34:29;4.27;;;0.73;;
59042;SDS011;44826;51.596;5.624;2024-01-15T04:36:54;7.20;;;1.13;;
59042;SDS011;44826;51.596;5.624;2024-01-15T04:39:20;3.80;;;0.70;;
59042;SDS011;44826;51.596;5.624;2024-01-15T04:41:45;5.73;;;0.90;;
59042;SDS011;44826;51.596;5.624;2024-01-15T04:44:10;4.57;;;1.00;;
59042;SDS011;44826;51.596;5.624;2024-01-15T04:46:36;3.77;;;0.87;;
59042;SDS011;44826;51.596;5.624;2024-01-15T04:49:01;5.00;;;1.00;;
59042;SDS011;44826;51.596;5.624;2024-01-15T04:51:27;2.47;;;0.80;;
59042;SDS011;44826;51.596;5.624;2024-01-15T04:53:52;4.00;;;1.00;;
59042;SDS011;44826;51.596;5.624;2024-01-15T04:56:17;3.23;;;1.20;;
59042;SDS011;44826;51.596;5.624;2024-01-15T04:58:43;2.07;;;0.80;;
59042;SDS011;44826;51.596;5.624;2024-01-15T05:01:08;4.03;;;1.00;;
59042;SDS011;44826;51.596;5.624;2024-01-15T05:03:35;3.53;;;0.90;;
59042;SDS011;44826;51.596;5.624;2024-01-15T05:06:00;3.53;;;1.00;;
59042;SDS011;44826;51.596;5.624;2024-01-15T05:08:25;1.73;;;0.70;;
59042;SDS011;44826;51.596;5.624;2024-01-15T05:10:51;2.17;;;0.80;;
59042;SDS011;44826;51.596;5.624;2024-01-15T05:13:16;2.43;;;0.80;;
59042;SDS011;44826;51.596;5.624;2024-01-15T05:15:41;1.53;;;0.67;;
59042;SDS011;44826;51.596;5.624;2024-01-15T05:18:07;3.53;;;0.80;;
59042;SDS011;44826;51.596;5.624;2024-01-15T05:20:32;3.03;;;0.87;;
59042;SDS011;44826;51.596;5.624;2024-01-15T05:22:57;1.20;;;0.73;;
59042;SDS011;44826;51.596;5.624;2024-01-15T05:25:23;2.63;;;0.70;;
59042;SDS011;44826;51.596;5.624;2024-01-15T05:27:48;2.13;;;0.63;;
59042;SDS011;44826;51.596;5.624;2024-01-15T05:30:13;1.20;;;0.47;;
59042;SDS011;44826;51.596;5.624;2024-01-15T05:32:39;1.97;;;0.40;;
59042;SDS011;44826;51.596;5.624;2024-01-15T05:35:04;1.17;;;0.43;;
59042;SDS011;44826;51.596;5.624;2024-01-15T05:37:30;1.40;;;0.40;;
59042;SDS011;44826;51.596;5.624;2024-01-15T05:39:55;0.67;;;0.40;;
59042;SDS011;44826;51.596;5.624;2024-01-15T05:42:21;1.90;;;0.43;;
59042;SDS011;44826;51.596;5.624;2024-01-15T05:44:46;1.50;;;0.50;;
59042;SDS011;44826;51.596;5.624;2024-01-15T05:47:11;1.73;;;0.47;;
59042;SDS011;44826;51.596;5.624;2024-01-15T05:49:37;1.90;;;0.70;;
59042;SDS011;44826;51.596;5.624;2024-01-15T05:52:03;1.07;;;0.60;;
59042;SDS011;44826;51.596;5.624;2024-01-15T05:54:28;0.60;;;0.50;;
59042;SDS011;44826;51.596;5.624;2024-01-15T05:56:54;1.10;;;0.70;;
59042;SDS011;44826;51.596;5.624;2024-01-15T05:59:19;2.03;;;0.80;;
59042;SDS011;44826;51.596;5.624;2024-01-15T06:01:44;2.67;;;1.27;;
59042;SDS011;44826;51.596;5.624;2024-01-15T06:04:10;1.80;;;1.30;;
59042;SDS011;44826;51.596;5.624;2024-01-15T06:06:35;3.00;;;0.93;;
59042;SDS011;44826;51.596;5.624;2024-01-15T06:09:00;2.57;;;1.10;;
59042;SDS011;44826;51.596;5.624;2024-01-15T06:11:30;6.37;;;1.10;;
59042;SDS011;44826;51.596;5.624;2024-01-15T06:13:56;1.63;;;0.90;;
59042;SDS011;44826;51.596;5.624;2024-01-15T06:16:21;3.33;;;1.00;;
59042;SDS011;44826;51.596;5.624;2024-01-15T06:18:49;1.43;;;0.90;;
59042;SDS011;44826;51.596;5.624;2024-01-15T06:21:14;4.30;;;0.90;;
59042;SDS011;44826;51.596;5.624;2024-01-15T06:23:41;2.30;;;0.80;;
59042;SDS011;44826;51.596;5.624;2024-01-15T06:26:06;3.70;;;1.00;;
59042;SDS011;44826;51.596;5.624;2024-01-15T06:28:31;3.27;;;0.90;;
59042;SDS011;44826;51.596;5.624;2024-01-15T06:30:57;1.90;;;0.90;;
59042;SDS011;44826;51.596;5.624;2024-01-15T06:33:23;2.10;;;0.80;;
59042;SDS011;44826;51.596;5.624;2024-01-15T06:35:48;2.63;;;0.90;;
59042;SDS011;44826;51.596;5.624;2024-01-15T06:38:14;3.73;;;1.30;;
59042;SDS011;44826;51.596;5.624;2024-01-15T06:40:40;2.60;;;1.10;;
59042;SDS011;44826;51.596;5.624;2024-01-15T06:43:10;2.50;;;1.00;;
59042;SDS011;44826;51.596;5.624;2024-01-15T06:48:07;2.20;;;0.97;;
59042;SDS011;44826;51.596;5.624;2024-01-15T06:50:32;1.80;;;1.00;;
59042;SDS011;44826;51.596;5.624;2024-01-15T06:52:58;1.90;;;1.10;;
59042;SDS011;44826;51.596;5.624;2024-01-15T06:55:23;2.37;;;0.93;;
59042;SDS011;44826;51.596;5.624;2024-01-15T06:57:49;3.00;;;0.90;;
59042;SDS011;44826;51.596;5.624;2024-01-15T07:00:15;2.73;;;1.20;;
59042;SDS011;44826;51.596;5.624;2024-01-15T07:02:41;3.00;;;1.10;;
59042;SDS011;44826;51.596;5.624;2024-01-15T07:05:06;1.60;;;1.10;;
59042;SDS011;44826;51.596;5.624;2024-01-15T07:07:32;4.00;;;1.50;;
59042;SDS011;44826;51.596;5.624;2024-01-15T07:09:57;2.03;;;1.33;;
59042;SDS011;44826;51.596;5.624;2024-01-15T07:12:23;4.53;;;1.53;;
59042;SDS011;44826;51.596;5.624;2024-01-15T07:14:48;2.37;;;1.40;;
59042;SDS011;44826;51.596;5.624;2024-01-15T07:17:14;2.90;;;1.43;;
59042;SDS011;44826;51.596;5.624;2024-01-15T07:19:40;4.43;;;2.00;;
59042;SDS011;44826;51.596;5.624;2024-01-15T07:22:06;2.43;;;1.50;;
59042;SDS011;44826;51.596;5.624;2024-01-15T07:24:31;3.20;;;1.47;;
59042;SDS011;44826;51.596;5.624;2024-01-15T07:26:59;2.93;;;1.80;;
59042;SDS011;44826;51.596;5.624;2024-01-15T07:29:24;2.13;;;1.33;;
59042;SDS011;44826;51.596;5.624;2024-01-15T07:31:50;2.67;;;1.60;;
59042;SDS011;44826;51.596;5.624;2024-01-15T07:34:16;2.20;;;1.37;;
59042;SDS011;44826;51.596;5.624;2024-01-15T07:36:43;3.40;;;1.53;;
59042;SDS011;44826;51.596;5.624;2024-01-15T07:39:09;4.13;;;1.50;;
59042;SDS011;44826;51.596;5.624;2024-01-15T07:41:34;3.07;;;1.30;;
59042;SDS011;44826;51.596;5.624;2024-01-15T07:44:00;4.00;;;1.37;;
59042;SDS011;44826;51.596;5.624;2024-01-15T07:46:25;2.20;;;1.40;;
59042;SDS011;44826;51.596;5.624;2024-01-15T07:48:51;2.10;;;1.30;;
59042;SDS011;44826;51.596;5.624;2024-01-15T07:51:21;1.77;;;1.27;;
59042;SDS011;44826;51.596;5.624;2024-01-15T07:53:47;1.63;;;1.23;;
59042;SDS011;44826;51.596;5.624;2024-01-15T07:56:12;2.13;;;1.30;;
59042;SDS011;44826;51.596;5.624;2024-01-15T07:58:37;1.93;;;1.30;;
59042;SDS011;44826;51.596;5.624;2024-01-15T08:01:03;2.30;;;1.33;;
59042;SDS011;44826;51.596;5.624;2024-01-15T08:03:28;2.47;;;1.50;;
59042;SDS011;44826;51.596;5.624;2024-01-15T08:05:54;2.40;;;1.40;;
59042;SDS011;44826;51.596;5.624;2024-01-15T08:08:20;3.33;;;1.80;;
59042;SDS011;44826;51.596;5.624;2024-01-15T08:10:49;2.70;;;1.80;;
59042;SDS011;44826;51.596;5.624;2024-01-15T08:13:14;2.90;;;1.90;;
59042;SDS011;44826;51.596;5.624;2024-01-15T08:15:40;3.13;;;2.03;;
59042;SDS011;44826;51.596;5.624;2024-01-15T08:18:06;2.93;;;1.90;;
59042;SDS011;44826;51.596;5.624;2024-01-15T08:20:32;3.53;;;2.00;;
59042;SDS011;44826;51.596;5.624;2024-01-15T08:22:57;4.07;;;2.40;;
59042;SDS011;44826;51.596;5.624;2024-01-15T08:25:22;3.53;;;2.13;;
59042;SDS011;44826;51.596;5.624;2024-01-15T08:27:48;4.10;;;2.47;;
59042;SDS011;44826;51.596;5.624;2024-01-15T08:30:13;3.00;;;2.10;;
59042;SDS011;44826;51.596;5.624;2024-01-15T08:32:39;4.90;;;2.70;;
59042;SDS011;44826;51.596;5.624;2024-01-15T08:35:06;4.90;;;2.33;;
59042;SDS011;44826;51.596;5.624;2024-01-15T08:37:31;5.07;;;2.50;;
59042;SDS011;44826;51.596;5.624;2024-01-15T08:39:56;3.93;;;2.37;;
59042;SDS011;44826;51.596;5.624;2024-01-15T08:42:22;4.80;;;2.53;;
59042;SDS011;44826;51.596;5.624;2024-01-15T08:44:47;3.17;;;2.30;;
59042;SDS011;44826;51.596;5.624;2024-01-15T08:47:12;4.57;;;3.07;;
59042;SDS011;44826;51.596;5.624;2024-01-15T08:49:38;3.37;;;2.47;;
59042;SDS011;44826;51.596;5.624;2024-01-15T08:52:05;3.90;;;2.27;;
59042;SDS011;44826;51.596;5.624;2024-01-15T08:54:32;3.40;;;2.20;;
59042;SDS011;44826;51.596;5.624;2024-01-15T08:56:57;3.70;;;2.30;;
59042;SDS011;44826;51.596;5.624;2024-01-15T08:59:23;2.80;;;2.10;;
59042;SDS011;44826;51.596;5.624;2024-01-15T09:01:50;4.33;;;2.00;;
59042;SDS011;44826;51.596;5.624;2024-01-15T09:04:19;3.43;;;2.27;;
59042;SDS011;44826;51.596;5.624;2024-01-15T09:06:45;3.67;;;2.30;;
59042;SDS011;44826;51.596;5.624;2024-01-15T09:09:12;2.70;;;2.00;;
59042;SDS011;44826;51.596;5.624;2024-01-15T09:11:37;2.63;;;2.10;;
59042;SDS011;44826;51.596;5.624;2024-01-15T09:14:03;2.93;;;2.10;;
59042;SDS011;44826;51.596;5.624;2024-01-15T09:16:28;3.13;;;2.20;;
59042;SDS011;44826;51.596;5.624;2024-01-15T09:18:54;3.37;;;2.20;;
59042;SDS011;44826;51.596;5.624;2024-01-15T09:21:21;3.20;;;2.40;;
59042;SDS011;44826;51.596;5.624;2024-01-15T09:23:47;4.40;;;2.40;;
59042;SDS011;44826;51.596;5.624;2024-01-15T09:26:13;2.90;;;2.20;;
59042;SDS011;44826;51.596;5.624;2024-01-15T09:28:38;3.97;;;2.70;;
59042;SDS011;44826;51.596;5.624;2024-01-15T09:31:04;3.60;;;2.60;;
59042;SDS011;44826;51.596;5.624;2024-01-15T09:33:29;3.80;;;2.50;;
59042;SDS011;44826;51.596;5.624;2024-01-15T09:35:54;3.67;;;2.93;;
59042;SDS011;44826;51.596;5.624;2024-01-15T09:38:20;4.60;;;3.00;;
59042;SDS011;44826;51.596;5.624;2024-01-15T09:40:45;4.10;;;2.87;;
59042;SDS011;44826;51.596;5.624;2024-01-15T09:43:12;4.30;;;2.80;;
59042;SDS011;44826;51.596;5.624;2024-01-15T09:45:39;7.57;;;2.80;;
59042;SDS011;44826;51.596;5.624;2024-01-15T09:48:05;4.33;;;2.80;;
59042;SDS011;44826;51.596;5.624;2024-01-15T09:50:31;5.33;;;2.43;;
59042;SDS011;44826;51.596;5.624;2024-01-15T09:52:56;3.70;;;2.70;;
59042;SDS011;44826;51.596;5.624;2024-01-15T09:55:22;4.30;;;2.30;;
59042;SDS011;44826;51.596;5.624;2024-01-15T09:57:48;4.67;;;2.10;;
59042;SDS011;44826;51.596;5.624;2024-01-15T10:00:17;5.73;;;2.83;;
59042;SDS011;44826;51.596;5.624;2024-01-15T10:02:42;4.03;;;1.80;;
59042;SDS011;44826;51.596;5.624;2024-01-15T10:05:08;4.30;;;1.50;;
59042;SDS011;44826;51.596;5.624;2024-01-15T10:07:35;2.47;;;1.40;;
59042;SDS011;44826;51.596;5.624;2024-01-15T10:10:02;1.90;;;1.00;;
59042;SDS011;44826;51.596;5.624;2024-01-15T10:12:28;3.73;;;1.10;;
59042;SDS011;44826;51.596;5.624;2024-01-15T10:14:55;4.70;;;1.00;;
59042;SDS011;44826;51.596;5.624;2024-01-15T10:17:21;3.70;;;0.80;;
59042;SDS011;44826;51.596;5.624;2024-01-15T10:19:46;1.90;;;0.73;;
59042;SDS011;44826;51.596;5.624;2024-01-15T10:22:13;2.97;;;0.60;;
59042;SDS011;44826;51.596;5.624;2024-01-15T10:24:40;1.90;;;0.70;;
59042;SDS011;44826;51.596;5.624;2024-01-15T10:27:06;3.50;;;0.80;;
59042;SDS011;44826;51.596;5.624;2024-01-15T10:29:35;3.27;;;1.27;;
59042;SDS011;44826;51.596;5.624;2024-01-15T10:32:01;6.07;;;1.30;;
59042;SDS011;44826;51.596;5.624;2024-01-15T10:34:39;2.90;;;1.13;;
59042;SDS011;44826;51.596;5.624;2024-01-15T10:37:07;3.20;;;1.20;;
59042;SDS011;44826;51.596;5.624;2024-01-15T10:39:32;3.63;;;1.10;;
59042;SDS011;44826;51.596;5.624;2024-01-15T10:41:58;5.70;;;1.13;;
59042;SDS011;44826;51.596;5.624;2024-01-15T10:44:23;3.40;;;1.40;;
59042;SDS011;44826;51.596;5.624;2024-01-15T10:46:50;3.37;;;1.03;;
59042;SDS011;44826;51.596;5.624;2024-01-15T10:49:16;2.57;;;0.90;;
59042;SDS011;44826;51.596;5.624;2024-01-15T10:51:43;7.50;;;2.03;;
59042;SDS011;44826;51.596;5.624;2024-01-15T10:54:09;6.73;;;1.80;;
59042;SDS011;44826;51.596;5.624;2024-01-15T10:56:36;5.13;;;1.70;;
59042;SDS011;44826;51.596;5.624;2024-01-15T10:59:02;3.67;;;1.50;;
59042;SDS011;44826;51.596;5.624;2024-01-15T11:01:29;5.13;;;1.50;;
59042;SDS011;44826;51.596;5.624;2024-01-15T11:03:55;3.00;;;1.60;;
59042;SDS011;44826;51.596;5.624;2024-01-15T11:06:23;4.73;;;1.50;;
59042;SDS011;44826;51.596;5.624;2024-01-15T11:08:49;4.57;;;1.67;;
59042;SDS011;44826;51.596;5.624;2024-01-15T11:11:18;2.87;;;1.27;;
59042;SDS011;44826;51.596;5.624;2024-01-15T11:13:49;5.07;;;1.33;;
59042;SDS011;44826;51.596;5.624;2024-01-15T11:16:17;4.90;;;1.60;;
59042;SDS011;44826;51.596;5.624;2024-01-15T11:21:23;6.83;;;1.47;;
59042;SDS011;44826;51.596;5.624;2024-01-15T11:23:58;4.50;;;1.60;;
59042;SDS011;44826;51.596;5.624;2024-01-15T11:29:03;4.07;;;1.90;;
59042;SDS011;44826;51.596;5.624;2024-01-15T11:34:05;3.40;;;1.70;;
59042;SDS011;44826;51.596;5.624;2024-01-15T11:41:56;4.33;;;1.50;;
59042;SDS011;44826;51.596;5.624;2024-01-15T11:44:22;4.63;;;1.70;;
59042;SDS011;44826;51.596;5.624;2024-01-15T11:46:56;4.20;;;1.60;;
59042;SDS011;44826;51.596;5.624;2024-01-15T11:52:31;6.33;;;1.80;;
59042;SDS011;44826;51.596;5.624;2024-01-15T11:58:01;3.93;;;1.77;;
59042;SDS011;44826;51.596;5.624;2024-01-15T12:00:27;3.13;;;1.43;;
59042;SDS011;44826;51.596;5.624;2024-01-15T12:02:53;2.23;;;0.97;;
59042;SDS011;44826;51.596;5.624;2024-01-15T12:05:19;4.23;;;1.20;;
59042;SDS011;44826;51.596;5.624;2024-01-15T12:07:46;2.47;;;0.80;;
59042;SDS011;44826;51.596;5.624;2024-01-15T12:10:14;2.53;;;0.90;;
59042;SDS011;44826;51.596;5.624;2024-01-15T12:15:18;1.17;;;0.70;;
59042;SDS011;44826;51.596;5.624;2024-01-15T12:17:43;1.47;;;0.90;;
59042;SDS011;44826;51.596;5.624;2024-01-15T12:20:10;2.23;;;1.00;;
59042;SDS011;44826;51.596;5.624;2024-01-15T12:22:36;3.10;;;1.10;;
59042;SDS011;44826;51.596;5.624;2024-01-15T12:25:01;2.47;;;1.10;;
59042;SDS011;44826;51.596;5.624;2024-01-15T12:27:27;1.40;;;0.80;;
59042;SDS011;44826;51.596;5.624;2024-01-15T12:29:52;2.30;;;1.20;;
59042;SDS011;44826;51.596;5.624;2024-01-15T12:32:18;2.17;;;1.10;;
59042;SDS011;44826;51.596;5.624;2024-01-15T12:34:44;2.23;;;1.20;;
59042;SDS011;44826;51.596;5.624;2024-01-15T12:37:09;1.57;;;1.10;;
59042;SDS011;44826;51.596;5.624;2024-01-15T12:39:36;2.43;;;1.30;;
59042;SDS011;44826;51.596;5.624;2024-01-15T12:42:01;3.23;;;1.03;;
59042;SDS011;44826;51.596;5.624;2024-01-15T12:44:28;2.63;;;1.10;;
59042;SDS011;44826;51.596;5.624;2024-01-15T12:46:54;2.30;;;1.50;;
59042;SDS011;44826;51.596;5.624;2024-01-15T12:49:20;1.93;;;1.30;;
59042;SDS011;44826;51.596;5.624;2024-01-15T12:51:52;2.40;;;1.70;;
59042;SDS011;44826;51.596;5.624;2024-01-15T12:54:19;3.60;;;1.83;;
59042;SDS011;44826;51.596;5.624;2024-01-15T12:56:44;2.07;;;1.50;;
59042;SDS011;44826;51.596;5.624;2024-01-15T12:59:09;4.63;;;2.00;;
59042;SDS011;44826;51.596;5.624;2024-01-15T13:01:35;2.27;;;1.70;;
59042;SDS011;44826;51.596;5.624;2024-01-15T13:04:01;2.63;;;1.60;;
59042;SDS011;44826;51.596;5.624;2024-01-15T13:06:26;1.83;;;1.33;;
59042;SDS011;44826;51.596;5.624;2024-01-15T13:08:51;3.07;;;1.33;;
59042;SDS011;44826;51.596;5.624;2024-01-15T13:11:17;1.53;;;1.20;;
59042;SDS011;44826;51.596;5.624;2024-01-15T13:13:43;2.30;;;1.37;;
59042;SDS011;44826;51.596;5.624;2024-01-15T13:16:08;3.00;;;1.50;;
59042;SDS011;44826;51.596;5.624;2024-01-15T13:18:34;4.60;;;1.63;;
59042;SDS011;44826;51.596;5.624;2024-01-15T13:20:59;3.40;;;1.50;;
59042;SDS011;44826;51.596;5.624;2024-01-15T13:23:25;2.13;;;1.67;;
59042;SDS011;44826;51.596;5.624;2024-01-15T13:25:50;2.23;;;1.73;;
59042;SDS011;44826;51.596;5.624;2024-01-15T13:28:16;3.27;;;2.10;;
59042;SDS011;44826;51.596;5.624;2024-01-15T13:30:41;2.90;;;2.10;;
59042;SDS011;44826;51.596;5.624;2024-01-15T13:33:07;3.93;;;2.47;;
59042;SDS011;44826;51.596;5.624;2024-01-15T13:35:33;3.83;;;2.23;;
59042;SDS011;44826;51.596;5.624;2024-01-15T13:38:01;4.53;;;2.70;;
59042;SDS011;44826;51.596;5.624;2024-01-15T13:40:26;5.97;;;2.70;;
59042;SDS011;44826;51.596;5.624;2024-01-15T13:42:51;6.43;;;2.70;;
59042;SDS011;44826;51.596;5.624;2024-01-15T13:45:17;3.40;;;2.40;;
59042;SDS011;44826;51.596;5.624;2024-01-15T13:47:43;6.13;;;2.43;;
59042;SDS011;44826;51.596;5.624;2024-01-15T13:50:08;3.10;;;2.03;;
59042;SDS011;44826;51.596;5.624;2024-01-15T13:52:34;4.30;;;2.17;;
59042;SDS011;44826;51.596;5.624;2024-01-15T13:55:00;2.87;;;2.13;;
59042;SDS011;44826;51.596;5.624;2024-01-15T13:57:25;3.10;;;2.10;;
59042;SDS011;44826;51.596;5.624;2024-01-15T13:59:51;3.50;;;2.10;;
59042;SDS011;44826;51.596;5.624;2024-01-15T14:02:16;2.37;;;1.63;;
59042;SDS011;44826;51.596;5.624;2024-01-15T14:04:41;3.20;;;2.03;;
59042;SDS011;44826;51.596;5.624;2024-01-15T14:07:07;4.37;;;2.07;;
59042;SDS011;44826;51.596;5.624;2024-01-15T14:09:32;3.50;;;1.87;;
59042;SDS011;44826;51.596;5.624;2024-01-15T14:11:58;4.17;;;1.97;;
59042;SDS011;44826;51.596;5.624;2024-01-15T14:14:23;2.73;;;1.77;;
59042;SDS011;44826;51.596;5.624;2024-01-15T14:16:49;4.10;;;1.47;;
59042;SDS011;44826;51.596;5.624;2024-01-15T14:19:15;2.30;;;1.23;;
59042;SDS011;44826;51.596;5.624;2024-01-15T14:21:40;2.60;;;1.43;;
59042;SDS011;44826;51.596;5.624;2024-01-15T14:24:06;4.40;;;1.30;;
59042;SDS011;44826;51.596;5.624;2024-01-15T14:26:31;2.70;;;1.23;;
59042;SDS011;44826;51.596;5.624;2024-01-15T14:28:57;2.00;;;1.37;;
59042;SDS011;44826;51.596;5.624;2024-01-15T14:31:23;1.70;;;1.20;;
59042;SDS011;44826;51.596;5.624;2024-01-15T14:33:51;2.77;;;1.43;;
59042;SDS011;44826;51.596;5.624;2024-01-15T14:36:20;3.43;;;1.40;;
59042;SDS011;44826;51.596;5.624;2024-01-15T14:38:45;2.13;;;1.20;;
59042;SDS011;44826;51.596;5.624;2024-01-15T14:41:11;3.20;;;1.20;;
59042;SDS011;44826;51.596;5.624;2024-01-15T14:43:36;4.27;;;1.10;;
59042;SDS011;44826;51.596;5.624;2024-01-15T14:46:02;2.90;;;1.00;;
59042;SDS011;44826;51.596;5.624;2024-01-15T14:48:27;1.77;;;0.80;;
59042;SDS011;44826;51.596;5.624;2024-01-15T14:50:52;2.27;;;1.07;;
59042;SDS011;44826;51.596;5.624;2024-01-15T14:53:18;1.60;;;0.93;;
59042;SDS011;44826;51.596;5.624;2024-01-15T14:55:43;3.80;;;0.93;;
59042;SDS011;44826;51.596;5.624;2024-01-15T14:58:09;3.07;;;1.30;;
59042;SDS011;44826;51.596;5.624;2024-01-15T15:00:34;3.33;;;1.47;;
59042;SDS011;44826;51.596;5.624;2024-01-15T15:02:59;2.73;;;1.20;;
59042;SDS011;44826;51.596;5.624;2024-01-15T15:05:25;3.73;;;1.70;;